createdAt,value
2018-05-24T00:01:24.820Z,44.00
2018-05-24T00:03:52.894Z,44.20
2018-05-24T00:06:20.928Z,44.30
2018-05-24T00:08:48.978Z,44.60
2018-05-24T00:11:17.022Z,44.80
2018-05-24T00:13:45.822Z,45.20
2018-05-24T00:16:14.687Z,45.40
2018-05-24T00:18:42.798Z,45.40
2018-05-24T00:21:11.593Z,45.90
2018-05-24T00:23:39.623Z,45.90
2018-05-24T00:26:08.444Z,46.50
2018-05-24T00:28:36.478Z,46.50
2018-05-24T00:31:04.530Z,46.20
2018-05-24T00:33:32.562Z,46.60
2018-05-24T00:36:00.630Z,46.80
2018-05-24T00:38:28.663Z,47.10
2018-05-24T00:40:56.710Z,47.30
2018-05-24T00:43:24.790Z,47.40
2018-05-24T00:45:52.860Z,44.00
2018-05-24T00:48:20.896Z,47.50
2018-05-24T00:50:48.963Z,47.70
2018-05-24T00:53:17.769Z,47.60
2018-05-24T00:55:45.808Z,47.90
2018-05-24T00:58:13.882Z,48.10
2018-05-24T01:00:41.953Z,48.50
2018-05-24T01:03:10.020Z,48.60
2018-05-24T01:05:38.834Z,49.10
2018-05-24T01:08:06.912Z,49.10
2018-05-24T01:10:35.052Z,48.90
2018-05-24T01:13:03.050Z,49.00
2018-05-24T01:15:31.140Z,49.40
2018-05-24T01:17:59.209Z,49.50
2018-05-24T01:20:27.245Z,50.10
2018-05-24T01:22:56.542Z,50.10
2018-05-24T01:25:24.561Z,50.10
2018-05-24T01:27:52.612Z,50.60
2018-05-24T01:30:21.434Z,51.20
2018-05-24T01:32:49.496Z,50.90
2018-05-24T01:35:17.529Z,50.90
2018-05-24T01:37:49.983Z,51.10
2018-05-24T01:40:18.831Z,51.90
2018-05-24T01:42:47.703Z,51.40
2018-05-24T01:45:15.767Z,51.30
2018-05-24T01:47:43.841Z,51.90
2018-05-24T01:50:11.966Z,52.40
2018-05-24T01:52:40.802Z,52.80
2018-05-24T01:55:08.839Z,52.50
2018-05-24T01:57:36.913Z,52.60
2018-05-24T02:00:04.971Z,52.80
2018-05-24T02:02:34.538Z,53.10
2018-05-24T02:05:02.588Z,53.10
2018-05-24T02:07:30.625Z,53.40
2018-05-24T02:09:59.437Z,54.00
2018-05-24T02:12:27.476Z,53.70
2018-05-24T02:14:56.297Z,54.40
2018-05-24T02:17:24.339Z,54.00
2018-05-24T02:19:53.157Z,54.70
2018-05-24T02:22:21.310Z,54.20
2018-05-24T02:24:49.362Z,54.40
2018-05-24T02:27:17.363Z,54.40
2018-05-24T02:29:45.446Z,54.60
2018-05-24T02:32:13.865Z,54.60
2018-05-24T02:34:43.444Z,55.20
2018-05-24T02:37:11.501Z,54.70
2018-05-24T02:39:39.625Z,54.80
2018-05-24T02:42:08.055Z,54.90
2018-05-24T02:44:36.110Z,55.20
2018-05-24T02:47:04.233Z,55.50
2018-05-24T02:49:32.253Z,55.50
2018-05-24T02:52:00.305Z,55.70
2018-05-24T02:54:28.378Z,55.80
2018-05-24T02:56:57.205Z,56.50
2018-05-24T02:59:25.260Z,55.90
2018-05-24T03:01:53.332Z,55.90
2018-05-24T03:04:21.378Z,56.30
2018-05-24T03:06:50.190Z,56.90
2018-05-24T03:09:18.988Z,57.20
2018-05-24T03:11:47.022Z,56.90
2018-05-24T03:14:15.930Z,57.50
2018-05-24T03:16:43.881Z,57.20
2018-05-24T03:19:12.748Z,58.00
2018-05-24T03:21:40.804Z,57.50
2018-05-24T03:24:08.839Z,58.00
2018-05-24T03:26:36.915Z,58.20
2018-05-24T03:29:05.038Z,58.00
2018-05-24T03:31:33.160Z,58.00
2018-05-24T03:34:01.242Z,58.10
2018-05-24T03:36:29.348Z,58.20
2018-05-24T03:38:57.419Z,58.20
2018-05-24T03:41:25.464Z,58.30
2018-05-24T03:43:53.604Z,58.50
2018-05-24T03:46:22.414Z,59.20
2018-05-24T03:48:50.478Z,58.80
2018-05-24T03:51:19.029Z,59.20
2018-05-24T03:53:47.879Z,59.50
2018-05-24T03:56:15.981Z,58.90
2018-05-24T03:58:44.023Z,59.00
2018-05-24T04:01:24.118Z,59.00
2018-05-24T04:03:52.167Z,59.00
2018-05-24T04:06:20.249Z,58.90
2018-05-24T04:08:48.309Z,59.00
2018-05-24T04:11:16.391Z,59.60
2018-05-24T04:13:44.469Z,59.10
2018-05-24T04:16:12.535Z,59.10
2018-05-24T04:18:40.567Z,59.60
2018-05-24T04:21:08.659Z,59.70
2018-05-24T04:23:36.700Z,59.80
2018-05-24T04:26:04.773Z,59.30
2018-05-24T04:28:32.921Z,59.20
2018-05-24T04:31:00.985Z,59.60
2018-05-24T04:33:28.999Z,59.10
2018-05-24T04:35:57.077Z,59.10
2018-05-24T04:38:25.163Z,59.30
2018-05-24T04:40:53.241Z,59.40
2018-05-24T04:43:21.315Z,59.50
2018-05-24T04:45:49.437Z,59.50
2018-05-24T04:48:18.221Z,60.00
2018-05-24T04:50:46.326Z,59.40
2018-05-24T04:53:15.134Z,59.30
2018-05-24T04:55:43.204Z,59.30
2018-05-24T04:58:11.275Z,59.30
2018-05-24T05:00:40.852Z,59.60
2018-05-24T05:03:08.896Z,59.30
2018-05-24T05:05:36.941Z,59.30
2018-05-24T05:08:04.995Z,59.40
2018-05-24T05:10:33.826Z,59.40
2018-05-24T05:13:01.858Z,59.30
2018-05-24T05:15:29.974Z,59.30
2018-05-24T05:17:57.972Z,59.30
2018-05-24T05:20:26.024Z,59.10
2018-05-24T05:22:54.099Z,58.90
2018-05-24T05:25:22.166Z,58.50
2018-05-24T05:27:50.241Z,56.10
2018-05-24T05:30:18.288Z,52.20
2018-05-24T05:32:47.099Z,48.80
2018-05-24T05:35:15.167Z,48.70
2018-05-24T05:37:43.251Z,44.30
2018-05-24T05:40:11.310Z,42.40
2018-05-24T05:42:39.382Z,42.20
2018-05-24T05:45:07.441Z,41.30
2018-05-24T05:47:36.021Z,40.00
2018-05-24T05:50:04.092Z,40.50
2018-05-24T05:52:32.882Z,39.10
2018-05-24T05:55:01.055Z,39.00
2018-05-24T05:57:29.145Z,38.80
2018-05-24T05:59:57.223Z,37.70
2018-05-24T06:02:25.273Z,38.30
2018-05-24T06:04:53.361Z,37.60
2018-05-24T06:07:21.418Z,36.80
2018-05-24T06:09:49.499Z,36.10
2018-05-24T06:12:18.307Z,35.20
2018-05-24T06:14:46.439Z,35.70
2018-05-24T06:17:14.437Z,35.10
2018-05-24T06:19:44.362Z,34.80
2018-05-24T06:22:12.433Z,35.20
2018-05-24T06:24:40.482Z,33.60
2018-05-24T06:27:08.552Z,33.30
2018-05-24T06:29:36.611Z,33.90
2018-05-24T06:34:34.738Z,33.00
2018-05-24T06:37:03.926Z,32.70
2018-05-24T06:39:31.997Z,31.30
2018-05-24T06:42:00.080Z,31.90
2018-05-24T06:44:28.121Z,30.60
2018-05-24T06:46:56.206Z,29.80
2018-05-24T06:49:24.366Z,29.20
2018-05-24T06:51:52.376Z,29.30
2018-05-24T06:54:20.429Z,29.10
2018-05-24T06:56:48.485Z,28.90
2018-05-24T06:59:16.545Z,28.90
2018-05-24T07:01:45.378Z,28.40
2018-05-24T07:04:13.425Z,27.00
2018-05-24T07:06:41.488Z,26.20
2018-05-24T07:09:09.531Z,25.30
2018-05-24T07:11:38.416Z,25.10
2018-05-24T07:14:07.338Z,23.50
2018-05-24T07:16:35.405Z,23.50
2018-05-24T07:19:03.478Z,24.40
2018-05-24T07:21:31.525Z,26.30
2018-05-24T07:24:00.353Z,28.50
2018-05-24T07:26:28.424Z,29.70
2018-05-24T07:28:57.261Z,31.50
2018-05-24T07:31:25.334Z,31.30
2018-05-24T07:33:53.395Z,32.60
2018-05-24T07:36:21.471Z,33.90
2018-05-24T07:38:49.526Z,35.80
2018-05-24T07:41:17.614Z,37.20
2018-05-24T07:43:45.677Z,37.60
2018-05-24T07:46:14.503Z,38.00
2018-05-24T07:48:43.366Z,38.60
2018-05-24T07:51:11.419Z,38.00
2018-05-24T07:53:40.303Z,39.20
2018-05-24T07:56:08.337Z,39.10
2018-05-24T07:58:36.371Z,39.60
2018-05-24T08:01:04.422Z,37.40
2018-05-24T08:03:32.506Z,34.80
2018-05-24T08:06:00.561Z,34.90
2018-05-24T08:08:28.623Z,30.40
2018-05-24T08:10:56.665Z,30.80
2018-05-24T08:13:24.722Z,29.90
2018-05-24T08:15:53.519Z,26.40
2018-05-24T08:18:21.588Z,26.40
2018-05-24T08:20:50.409Z,25.90
2018-05-24T08:23:18.450Z,25.80
2018-05-24T08:25:46.503Z,26.10
2018-05-24T08:28:14.570Z,26.30
2018-05-24T08:30:42.635Z,27.30
2018-05-24T08:33:10.709Z,26.20
2018-05-24T08:35:38.767Z,26.50
2018-05-24T08:38:06.840Z,25.30
2018-05-24T08:40:34.950Z,24.40
2018-05-24T08:43:02.960Z,24.30
2018-05-24T08:45:31.019Z,24.50
2018-05-24T08:47:59.102Z,24.90
2018-05-24T08:50:28.054Z,23.70
2018-05-24T08:52:56.129Z,25.20
2018-05-24T08:55:24.178Z,23.50
2018-05-24T08:57:52.221Z,23.90
2018-05-24T09:00:21.044Z,23.30
2018-05-24T09:02:49.522Z,23.50
2018-05-24T09:05:18.366Z,23.10
2018-05-24T09:07:46.410Z,21.40
2018-05-24T09:10:14.488Z,20.60
2018-05-24T09:12:42.551Z,20.30
2018-05-24T09:15:11.378Z,21.70
2018-05-24T09:20:09.175Z,22.20
2018-05-24T09:22:37.942Z,21.50
2018-05-24T09:25:06.013Z,21.10
2018-05-24T09:27:34.078Z,21.40
2018-05-24T09:30:02.169Z,21.50
2018-05-24T09:32:30.201Z,22.60
2018-05-24T09:34:58.239Z,23.50
2018-05-24T09:37:27.095Z,26.30
2018-05-24T09:39:55.175Z,25.80
2018-05-24T09:42:23.226Z,26.30
2018-05-24T09:44:51.269Z,26.60
2018-05-24T09:47:19.343Z,27.30
2018-05-24T09:49:47.417Z,27.00
2018-05-24T09:52:16.293Z,23.50
2018-05-24T09:54:44.323Z,23.80
2018-05-24T09:57:12.363Z,20.50
2018-05-24T09:59:40.429Z,21.50
2018-05-24T10:02:08.484Z,22.80
2018-05-24T10:04:36.603Z,24.80
2018-05-24T10:07:04.625Z,25.90
2018-05-24T10:09:33.435Z,27.50
2018-05-24T10:12:01.466Z,27.10
2018-05-24T10:14:29.541Z,28.00
2018-05-24T10:16:58.340Z,29.20
2018-05-24T10:19:26.428Z,29.20
2018-05-24T10:21:54.495Z,28.40
2018-05-24T10:24:22.563Z,27.80
2018-05-24T10:26:50.622Z,27.40
2018-05-24T10:29:19.463Z,27.80
2018-05-24T10:31:47.590Z,27.70
2018-05-24T10:34:15.637Z,28.30
2018-05-24T10:36:44.458Z,29.30
2018-05-24T10:39:12.624Z,29.30
2018-05-24T10:41:40.630Z,29.80
2018-05-24T10:44:08.659Z,30.00
2018-05-24T10:46:38.289Z,30.80
2018-05-24T10:49:07.090Z,31.70
2018-05-24T10:51:35.128Z,30.60
2018-05-24T10:54:03.618Z,30.20
2018-05-24T10:56:36.488Z,30.00
2018-05-24T10:59:06.500Z,29.80
2018-05-24T11:01:35.344Z,29.70
2018-05-24T11:04:03.364Z,29.80
2018-05-24T11:06:32.183Z,30.30
2018-05-24T11:09:00.228Z,30.60
2018-05-24T11:11:29.057Z,31.50
2018-05-24T11:13:57.605Z,32.30
2018-05-24T11:16:25.678Z,32.90
2018-05-24T11:18:53.738Z,33.00
2018-05-24T11:21:22.566Z,33.60
2018-05-24T11:23:50.613Z,33.30
2018-05-24T11:26:18.802Z,33.40
2018-05-24T11:28:46.874Z,33.80
2018-05-24T11:31:14.943Z,34.10
2018-05-24T11:33:42.968Z,34.30
2018-05-24T11:36:11.026Z,34.40
2018-05-24T11:38:39.075Z,33.70
2018-05-24T11:41:07.210Z,32.30
2018-05-24T11:43:35.230Z,32.70
2018-05-24T11:46:03.283Z,31.80
2018-05-24T11:48:31.478Z,31.10
2018-05-24T11:50:59.562Z,31.40
2018-05-24T11:53:27.630Z,31.70
2018-05-24T11:55:55.660Z,32.20
2018-05-24T11:58:23.724Z,32.60
2018-05-24T12:00:51.776Z,33.50
2018-05-24T12:03:20.598Z,34.60
2018-05-24T12:05:48.712Z,34.80
2018-05-24T12:08:17.850Z,35.10
2018-05-24T12:10:45.974Z,36.00
2018-05-24T12:13:14.034Z,36.30
2018-05-24T12:15:42.113Z,36.70
2018-05-24T12:18:10.197Z,36.80
2018-05-24T12:20:38.309Z,36.70
2018-05-24T12:23:06.750Z,36.60
2018-05-24T12:25:34.797Z,36.60
2018-05-24T12:28:02.857Z,36.50
2018-05-24T12:30:31.001Z,36.20
2018-05-24T12:32:59.039Z,36.20
2018-05-24T12:35:27.309Z,36.10
2018-05-24T12:37:56.282Z,35.90
2018-05-24T12:40:25.274Z,36.50
2018-05-24T12:42:53.330Z,36.50
2018-05-24T12:45:21.373Z,36.60
2018-05-24T12:47:49.439Z,37.10
2018-05-24T12:50:19.216Z,37.10
2018-05-24T12:52:47.307Z,37.10
2018-05-24T12:55:15.350Z,36.90
2018-05-24T12:57:43.518Z,36.30
2018-05-24T13:00:11.512Z,36.20
2018-05-24T13:02:39.537Z,36.70
2018-05-24T13:05:07.649Z,37.20
2018-05-24T13:07:35.786Z,36.90
2018-05-24T13:10:03.846Z,37.00
2018-05-24T13:12:31.917Z,37.50
2018-05-24T13:15:00.001Z,36.50
2018-05-24T13:17:28.062Z,36.60
2018-05-24T13:19:56.086Z,37.30
2018-05-24T13:22:24.926Z,38.70
2018-05-24T13:24:52.995Z,38.00
2018-05-24T13:27:21.035Z,36.10
2018-05-24T13:29:49.886Z,35.70
2018-05-24T13:32:18.344Z,35.20
2018-05-24T13:34:46.426Z,34.90
2018-05-24T13:37:14.472Z,34.20
2018-05-24T13:39:42.592Z,34.30
2018-05-24T13:42:10.677Z,33.90
2018-05-24T13:44:38.726Z,34.00
2018-05-24T13:47:08.301Z,34.00
2018-05-24T13:49:36.376Z,34.80
2018-05-24T13:52:04.446Z,34.40
2018-05-24T13:54:32.534Z,35.00
2018-05-24T13:57:00.593Z,34.80
2018-05-24T13:59:28.658Z,34.60
2018-05-24T14:01:56.843Z,34.70
2018-05-24T14:04:24.827Z,35.30
2018-05-24T14:06:52.908Z,34.80
2018-05-24T14:09:20.992Z,33.90
2018-05-24T14:11:49.010Z,34.40
2018-05-24T14:14:17.078Z,34.60
2018-05-24T14:16:45.127Z,33.70
2018-05-24T14:19:13.946Z,34.30
2018-05-24T14:21:42.531Z,34.20
2018-05-24T14:24:10.573Z,30.40
2018-05-24T14:26:39.393Z,34.20
2018-05-24T14:29:07.442Z,33.50
2018-05-24T14:31:35.518Z,34.30
2018-05-24T14:34:04.180Z,33.50
2018-05-24T14:36:33.012Z,34.40
2018-05-24T14:39:01.098Z,33.50
2018-05-24T14:41:29.163Z,33.90
2018-05-24T14:43:57.234Z,34.40
2018-05-24T14:46:25.309Z,34.50
2018-05-24T14:48:53.398Z,34.60
2018-05-24T14:51:21.457Z,34.40
2018-05-24T14:53:49.517Z,35.30
2018-05-24T14:56:17.563Z,35.30
2018-05-24T14:58:45.644Z,35.30
2018-05-24T15:01:13.698Z,35.60
2018-05-24T15:03:42.545Z,35.10
2018-05-24T15:06:10.637Z,34.60
2018-05-24T15:08:38.705Z,35.30
2018-05-24T15:11:06.784Z,34.80
2018-05-24T15:13:46.556Z,34.70
2018-05-24T15:16:15.445Z,34.90
2018-05-24T15:18:44.280Z,35.30
2018-05-24T15:21:12.317Z,35.50
2018-05-24T15:23:40.375Z,35.50
2018-05-24T15:26:08.426Z,35.60
2018-05-24T15:28:37.648Z,35.00
2018-05-24T15:31:05.698Z,34.70
2018-05-24T15:33:34.514Z,35.40
2018-05-24T15:36:02.602Z,34.80
2018-05-24T15:38:30.615Z,35.50
2018-05-24T15:40:59.067Z,34.90
2018-05-24T15:43:27.102Z,36.00
2018-05-24T15:45:55.940Z,44.10
2018-05-24T15:48:24.028Z,47.10
2018-05-24T15:50:52.593Z,48.30
2018-05-24T15:53:20.647Z,48.40
2018-05-24T15:55:48.683Z,49.20
2018-05-24T15:58:16.770Z,50.30
2018-05-24T16:00:44.809Z,50.80
2018-05-24T16:03:13.661Z,52.10
2018-05-24T16:05:41.733Z,51.80
2018-05-24T16:08:09.771Z,51.70
2018-05-24T16:10:37.813Z,51.50
2018-05-24T16:13:06.626Z,52.20
2018-05-24T16:15:34.693Z,51.50
2018-05-24T16:18:02.732Z,52.00
2018-05-24T16:20:31.591Z,52.20
2018-05-24T16:22:59.633Z,52.20
2018-05-24T16:25:27.706Z,51.70
2018-05-24T16:27:55.754Z,51.00
2018-05-24T16:30:24.584Z,51.00
2018-05-24T16:32:52.683Z,51.00
2018-05-24T16:35:20.751Z,48.00
2018-05-24T16:37:48.781Z,46.90
2018-05-24T16:40:17.742Z,46.50
2018-05-24T16:42:46.533Z,47.00
2018-05-24T16:45:15.388Z,46.90
2018-05-24T16:47:44.149Z,46.30
2018-05-24T16:50:12.185Z,53.30
2018-05-24T16:52:41.036Z,53.80
2018-05-24T16:55:09.111Z,53.80
2018-05-24T16:57:37.166Z,54.50
2018-05-24T17:00:05.238Z,53.60
2018-05-24T17:02:33.302Z,54.50
2018-05-24T17:05:01.364Z,54.90
2018-05-24T17:07:29.408Z,55.00
2018-05-24T17:09:57.530Z,55.60
2018-05-24T17:12:25.596Z,55.20
2018-05-24T17:14:53.708Z,55.50
2018-05-24T17:17:21.740Z,56.40
2018-05-24T17:19:49.851Z,56.30
2018-05-24T17:22:17.941Z,56.90
2018-05-24T17:24:46.750Z,57.10
2018-05-24T17:27:14.822Z,57.80
2018-05-24T17:29:42.975Z,58.20
2018-05-24T17:32:11.014Z,58.10
2018-05-24T17:34:39.066Z,58.60
2018-05-24T17:37:07.141Z,58.60
2018-05-24T17:39:35.214Z,59.00
2018-05-24T17:42:03.278Z,58.50
2018-05-24T17:44:31.333Z,58.50
2018-05-24T17:46:59.386Z,58.80
2018-05-24T17:49:27.510Z,58.80
2018-05-24T17:51:56.381Z,58.80
2018-05-24T17:54:24.443Z,58.60
2018-05-24T17:56:52.536Z,58.90
2018-05-24T17:59:20.631Z,59.00
2018-05-24T18:01:48.654Z,59.40
2018-05-24T18:04:17.489Z,60.20
2018-05-24T18:06:45.516Z,60.70
2018-05-24T18:09:13.667Z,60.50
2018-05-24T18:11:41.701Z,60.70
2018-05-24T18:14:10.567Z,60.60
2018-05-24T18:16:38.631Z,61.30
2018-05-24T18:19:06.682Z,61.00
2018-05-24T18:21:34.781Z,60.70
2018-05-24T18:24:02.850Z,60.70
2018-05-24T18:26:30.933Z,60.50
2018-05-24T18:28:58.975Z,60.70
2018-05-24T18:31:27.058Z,61.20
2018-05-24T18:33:55.091Z,61.70
2018-05-24T18:36:23.128Z,61.60
2018-05-24T18:38:51.189Z,61.70
2018-05-24T18:41:19.305Z,62.10
2018-05-24T18:43:47.315Z,62.10
2018-05-24T18:46:15.375Z,62.80
2018-05-24T18:48:43.436Z,62.80
2018-05-24T18:51:11.497Z,62.30
2018-05-24T18:53:40.486Z,60.20
2018-05-24T18:56:08.575Z,61.40
2018-05-24T18:58:37.353Z,61.90
2018-05-24T19:01:05.455Z,61.50
2018-05-24T19:03:33.525Z,62.10
2018-05-24T19:06:01.574Z,60.90
2018-05-24T19:08:29.614Z,59.30
2018-05-24T19:10:58.438Z,59.80
2018-05-24T19:13:26.544Z,59.40
2018-05-24T19:15:54.961Z,59.10
2018-05-24T19:18:23.767Z,59.80
2018-05-24T19:20:52.652Z,59.10
2018-05-24T19:23:21.461Z,59.80
2018-05-24T19:25:49.538Z,59.00
2018-05-24T19:28:17.585Z,58.60
2018-05-24T19:30:45.644Z,59.00
2018-05-24T19:33:13.730Z,58.80
2018-05-24T19:35:41.837Z,58.60
2018-05-24T19:38:09.892Z,58.00
2018-05-24T19:40:38.491Z,56.40
2018-05-24T19:43:07.644Z,56.70
2018-05-24T19:45:35.736Z,54.20
2018-05-24T19:48:03.825Z,53.60
2018-05-24T19:50:32.252Z,52.00
2018-05-24T19:53:01.089Z,51.80
2018-05-24T19:55:29.139Z,50.90
2018-05-24T19:57:57.189Z,50.50
2018-05-24T20:00:26.024Z,50.50
2018-05-24T20:02:54.089Z,49.10
2018-05-24T20:05:22.139Z,48.50
2018-05-24T20:07:50.194Z,48.50
2018-05-24T20:10:19.117Z,48.70
2018-05-24T20:12:47.171Z,47.50
2018-05-24T20:15:15.963Z,48.10
2018-05-24T20:17:44.025Z,47.70
2018-05-24T20:20:12.084Z,47.30
2018-05-24T20:22:40.905Z,47.50
2018-05-24T20:25:08.960Z,47.40
2018-05-24T20:27:37.009Z,47.30
2018-05-24T20:30:05.834Z,46.90
2018-05-24T20:32:33.894Z,46.40
2018-05-24T20:35:01.961Z,46.40
2018-05-24T20:37:30.026Z,46.50
2018-05-24T20:39:58.843Z,46.50
2018-05-24T20:42:28.415Z,46.00
2018-05-24T20:44:57.253Z,46.50
2018-05-24T20:47:25.285Z,45.90
2018-05-24T20:49:54.115Z,46.20
2018-05-24T20:52:22.181Z,45.70
2018-05-24T20:54:50.220Z,45.80
2018-05-24T20:57:18.281Z,45.60
2018-05-24T20:59:47.110Z,46.00
2018-05-24T21:02:15.174Z,45.90
2018-05-24T21:04:43.202Z,46.00
2018-05-24T21:07:11.262Z,45.50
2018-05-24T21:09:39.325Z,45.20
2018-05-24T21:12:07.358Z,45.70
2018-05-24T21:14:35.445Z,45.90
2018-05-24T21:17:03.499Z,45.70
2018-05-24T21:19:31.589Z,45.80
2018-05-24T21:22:00.260Z,45.80
2018-05-24T21:24:28.293Z,45.70
2018-05-24T21:26:57.710Z,45.80
2018-05-24T21:29:25.850Z,45.70
2018-05-24T21:31:53.887Z,45.60
2018-05-24T21:34:21.960Z,45.60
2018-05-24T21:36:49.995Z,45.50
2018-05-24T21:39:18.078Z,45.50
2018-05-24T21:41:46.868Z,45.60
2018-05-24T21:44:15.027Z,45.50
2018-05-24T21:46:43.031Z,45.70
2018-05-24T21:49:11.124Z,45.70
2018-05-24T21:51:39.203Z,45.70
2018-05-24T21:54:07.255Z,45.70
2018-05-24T21:56:35.389Z,45.80
2018-05-24T21:59:03.411Z,46.00
2018-05-24T22:01:31.493Z,46.00
2018-05-24T22:03:59.534Z,46.10
2018-05-24T22:06:27.606Z,46.00
2018-05-24T22:08:55.679Z,46.20
2018-05-24T22:11:23.741Z,46.10
2018-05-24T22:13:51.786Z,46.20
2018-05-24T22:16:19.911Z,46.30
2018-05-24T22:18:47.955Z,46.30
2018-05-24T22:21:16.002Z,46.40
2018-05-24T22:23:44.053Z,46.40
2018-05-24T22:26:12.858Z,46.70
2018-05-24T22:28:40.938Z,46.70
2018-05-24T22:31:09.010Z,46.80
2018-05-24T22:33:37.111Z,46.90
2018-05-24T22:36:05.138Z,47.10
2018-05-24T22:38:33.179Z,47.10
2018-05-24T22:41:01.222Z,47.30
2018-05-24T22:43:29.875Z,47.30
2018-05-24T22:45:58.688Z,47.60
2018-05-24T22:48:26.723Z,47.60
2018-05-24T22:50:55.557Z,48.00
2018-05-24T22:53:24.405Z,48.20
2018-05-24T22:55:53.208Z,48.30
2018-05-24T22:58:21.288Z,48.30
2018-05-24T23:00:49.309Z,48.40
2018-05-24T23:03:17.390Z,48.60
2018-05-24T23:05:45.440Z,48.70
2018-05-24T23:08:13.469Z,48.90
2018-05-24T23:10:42.394Z,49.80
2018-05-24T23:13:10.449Z,49.30
2018-05-24T23:15:38.510Z,49.50
2018-05-24T23:18:06.548Z,49.90
2018-05-24T23:20:35.382Z,50.60
2018-05-24T23:23:03.446Z,50.50
2018-05-24T23:25:31.499Z,50.90
2018-05-24T23:27:59.591Z,51.00
2018-05-24T23:30:27.613Z,51.30
2018-05-24T23:32:56.442Z,51.90
2018-05-24T23:35:24.500Z,51.80
2018-05-24T23:37:52.579Z,52.10
2018-05-24T23:40:21.389Z,52.60
2018-05-24T23:42:49.430Z,52.60
2018-05-24T23:45:17.501Z,52.80
2018-05-24T23:47:46.015Z,53.10
2018-05-24T23:50:14.071Z,53.30
2018-05-24T23:52:42.122Z,53.50
2018-05-24T23:55:10.206Z,53.60
2018-05-24T23:57:38.262Z,53.90
